sensor_id;sensor_type;location;lat;lon;timestamp;temperature;humidity
2539;DHT22;1280;49.760;9.664;2023-04-23T00:00:39;16.20;72.30
2539;DHT22;1280;49.760;9.664;2023-04-23T00:03:12;16.20;72.30
2539;DHT22;1280;49.760;9.664;2023-04-23T00:05:52;16.20;72.40
2539;DHT22;1280;49.760;9.664;2023-04-23T00:08:25;16.20;72.40
2539;DHT22;1280;49.760;9.664;2023-04-23T00:10:56;16.20;72.50
2539;DHT22;1280;49.760;9.664;2023-04-23T00:13:42;16.20;72.50
2539;DHT22;1280;49.760;9.664;2023-04-23T00:16:22;16.20;72.60
2539;DHT22;1280;49.760;9.664;2023-04-23T00:19:00;16.20;72.70
2539;DHT22;1280;49.760;9.664;2023-04-23T00:21:35;16.10;72.70
2539;DHT22;1280;49.760;9.664;2023-04-23T00:24:08;16.20;72.70
2539;DHT22;1280;49.760;9.664;2023-04-23T00:26:48;16.20;72.80
2539;DHT22;1280;49.760;9.664;2023-04-23T00:29:30;16.10;72.80
2539;DHT22;1280;49.760;9.664;2023-04-23T00:32:13;16.10;72.90
2539;DHT22;1280;49.760;9.664;2023-04-23T00:34:52;16.10;72.90
2539;DHT22;1280;49.760;9.664;2023-04-23T00:37:25;16.10;73.00
2539;DHT22;1280;49.760;9.664;2023-04-23T00:40:06;16.10;73.00
2539;DHT22;1280;49.760;9.664;2023-04-23T00:42:35;16.10;73.00
2539;DHT22;1280;49.760;9.664;2023-04-23T00:45:25;16.10;73.00
2539;DHT22;1280;49.760;9.664;2023-04-23T00:47:57;16.10;73.10
2539;DHT22;1280;49.760;9.664;2023-04-23T00:50:33;16.10;73.10
2539;DHT22;1280;49.760;9.664;2023-04-23T00:53:12;16.10;73.10
2539;DHT22;1280;49.760;9.664;2023-04-23T00:55:52;16.10;73.20
2539;DHT22;1280;49.760;9.664;2023-04-23T00:58:23;16.10;73.30
2539;DHT22;1280;49.760;9.664;2023-04-23T01:01:06;16.10;73.30
2539;DHT22;1280;49.760;9.664;2023-04-23T01:03:42;16.10;73.40
2539;DHT22;1280;49.760;9.664;2023-04-23T01:06:16;16.10;73.40
2539;DHT22;1280;49.760;9.664;2023-04-23T01:09:11;16.10;73.50
2539;DHT22;1280;49.760;9.664;2023-04-23T01:11:51;16.00;73.50
2539;DHT22;1280;49.760;9.664;2023-04-23T01:14:28;16.00;73.60
2539;DHT22;1280;49.760;9.664;2023-04-23T01:17:04;16.00;73.60
2539;DHT22;1280;49.760;9.664;2023-04-23T01:19:38;16.00;73.80
2539;DHT22;1280;49.760;9.664;2023-04-23T01:22:23;15.90;73.80
2539;DHT22;1280;49.760;9.664;2023-04-23T01:24:55;15.90;74.00
2539;DHT22;1280;49.760;9.664;2023-04-23T01:27:28;15.90;74.00
2539;DHT22;1280;49.760;9.664;2023-04-23T01:30:08;15.90;74.10
2539;DHT22;1280;49.760;9.664;2023-04-23T01:32:43;15.90;74.20
2539;DHT22;1280;49.760;9.664;2023-04-23T01:35:14;15.80;74.30
2539;DHT22;1280;49.760;9.664;2023-04-23T01:37:53;15.80;74.40
2539;DHT22;1280;49.760;9.664;2023-04-23T01:40:28;15.80;74.50
2539;DHT22;1280;49.760;9.664;2023-04-23T01:43:06;15.80;74.50
2539;DHT22;1280;49.760;9.664;2023-04-23T01:45:37;15.80;74.60
2539;DHT22;1280;49.760;9.664;2023-04-23T01:48:17;15.80;74.80
2539;DHT22;1280;49.760;9.664;2023-04-23T01:50:55;15.70;74.90
2539;DHT22;1280;49.760;9.664;2023-04-23T01:53:32;15.70;75.00
2539;DHT22;1280;49.760;9.664;2023-04-23T01:56:09;15.70;75.20
2539;DHT22;1280;49.760;9.664;2023-04-23T01:58:50;15.70;75.30
2539;DHT22;1280;49.760;9.664;2023-04-23T02:01:24;15.70;75.40
2539;DHT22;1280;49.760;9.664;2023-04-23T02:03:55;15.70;75.40
2539;DHT22;1280;49.760;9.664;2023-04-23T02:06:28;15.60;75.60
2539;DHT22;1280;49.760;9.664;2023-04-23T02:09:21;15.60;75.70
2539;DHT22;1280;49.760;9.664;2023-04-23T02:11:55;15.60;75.90
2539;DHT22;1280;49.760;9.664;2023-04-23T02:14:27;15.50;75.90
2539;DHT22;1280;49.760;9.664;2023-04-23T02:17:08;15.50;76.00
2539;DHT22;1280;49.760;9.664;2023-04-23T02:19:50;15.50;76.10
2539;DHT22;1280;49.760;9.664;2023-04-23T02:22:27;15.50;76.20
2539;DHT22;1280;49.760;9.664;2023-04-23T02:25:01;15.50;76.20
2539;DHT22;1280;49.760;9.664;2023-04-23T02:27:36;15.60;76.30
2539;DHT22;1280;49.760;9.664;2023-04-23T02:30:12;15.50;76.40
2539;DHT22;1280;49.760;9.664;2023-04-23T02:32:45;15.50;76.50
2539;DHT22;1280;49.760;9.664;2023-04-23T02:35:25;15.50;76.50
2539;DHT22;1280;49.760;9.664;2023-04-23T02:37:57;15.50;76.60
2539;DHT22;1280;49.760;9.664;2023-04-23T02:40:35;15.50;76.60
2539;DHT22;1280;49.760;9.664;2023-04-23T02:43:09;15.50;76.80
2539;DHT22;1280;49.760;9.664;2023-04-23T02:45:47;15.50;76.80
2539;DHT22;1280;49.760;9.664;2023-04-23T02:48:16;15.50;76.80
2539;DHT22;1280;49.760;9.664;2023-04-23T02:50:51;15.50;76.90
2539;DHT22;1280;49.760;9.664;2023-04-23T02:53:26;15.50;76.90
2539;DHT22;1280;49.760;9.664;2023-04-23T02:56:13;15.50;76.90
2539;DHT22;1280;49.760;9.664;2023-04-23T02:58:43;15.40;77.00
2539;DHT22;1280;49.760;9.664;2023-04-23T03:01:13;15.40;77.00
2539;DHT22;1280;49.760;9.664;2023-04-23T03:03:44;15.40;77.10
2539;DHT22;1280;49.760;9.664;2023-04-23T03:06:24;15.40;77.10
2539;DHT22;1280;49.760;9.664;2023-04-23T03:09:03;15.40;77.10
2539;DHT22;1280;49.760;9.664;2023-04-23T03:11:43;15.40;77.10
2539;DHT22;1280;49.760;9.664;2023-04-23T03:14:23;15.30;77.20
2539;DHT22;1280;49.760;9.664;2023-04-23T03:16:57;15.30;77.30
2539;DHT22;1280;49.760;9.664;2023-04-23T03:19:28;15.30;77.30
2539;DHT22;1280;49.760;9.664;2023-04-23T03:22:07;15.30;77.40
2539;DHT22;1280;49.760;9.664;2023-04-23T03:24:40;15.30;77.50
2539;DHT22;1280;49.760;9.664;2023-04-23T03:27:18;15.30;77.50
2539;DHT22;1280;49.760;9.664;2023-04-23T03:29:50;15.30;77.50
2539;DHT22;1280;49.760;9.664;2023-04-23T03:32:22;15.30;77.60
2539;DHT22;1280;49.760;9.664;2023-04-23T03:34:54;15.30;77.70
2539;DHT22;1280;49.760;9.664;2023-04-23T03:37:26;15.30;77.60
2539;DHT22;1280;49.760;9.664;2023-04-23T03:40:01;15.30;77.70
2539;DHT22;1280;49.760;9.664;2023-04-23T03:42:46;15.30;77.80
2539;DHT22;1280;49.760;9.664;2023-04-23T03:45:28;15.30;77.90
2539;DHT22;1280;49.760;9.664;2023-04-23T03:48:03;15.30;77.90
2539;DHT22;1280;49.760;9.664;2023-04-23T03:50:38;15.30;77.90
2539;DHT22;1280;49.760;9.664;2023-04-23T03:53:25;15.30;78.00
2539;DHT22;1280;49.760;9.664;2023-04-23T03:56:18;15.20;78.00
2539;DHT22;1280;49.760;9.664;2023-04-23T03:59:06;15.20;78.00
2539;DHT22;1280;49.760;9.664;2023-04-23T04:01:44;15.20;78.00
2539;DHT22;1280;49.760;9.664;2023-04-23T04:04:21;15.20;78.00
2539;DHT22;1280;49.760;9.664;2023-04-23T04:06:56;15.10;77.90
2539;DHT22;1280;49.760;9.664;2023-04-23T04:09:33;15.10;77.90
2539;DHT22;1280;49.760;9.664;2023-04-23T04:12:13;15.10;78.00
2539;DHT22;1280;49.760;9.664;2023-04-23T04:15:06;15.10;78.10
2539;DHT22;1280;49.760;9.664;2023-04-23T04:17:43;15.20;78.00
2539;DHT22;1280;49.760;9.664;2023-04-23T04:20:21;15.20;78.00
2539;DHT22;1280;49.760;9.664;2023-04-23T04:22:59;15.20;78.10
2539;DHT22;1280;49.760;9.664;2023-04-23T04:25:28;15.20;78.10
2539;DHT22;1280;49.760;9.664;2023-04-23T04:28:06;15.20;78.10
2539;DHT22;1280;49.760;9.664;2023-04-23T04:30:57;15.20;78.10
2539;DHT22;1280;49.760;9.664;2023-04-23T04:33:33;15.20;78.20
2539;DHT22;1280;49.760;9.664;2023-04-23T04:36:12;15.20;78.20
2539;DHT22;1280;49.760;9.664;2023-04-23T04:38:41;15.20;78.30
2539;DHT22;1280;49.760;9.664;2023-04-23T04:41:15;15.20;78.30
2539;DHT22;1280;49.760;9.664;2023-04-23T04:43:54;15.20;78.30
2539;DHT22;1280;49.760;9.664;2023-04-23T04:46:43;15.20;78.40
2539;DHT22;1280;49.760;9.664;2023-04-23T04:49:16;15.20;78.40
2539;DHT22;1280;49.760;9.664;2023-04-23T04:51:50;15.20;78.40
2539;DHT22;1280;49.760;9.664;2023-04-23T04:54:23;15.20;78.50
2539;DHT22;1280;49.760;9.664;2023-04-23T04:56:55;15.20;78.50
2539;DHT22;1280;49.760;9.664;2023-04-23T04:59:31;15.20;78.60
2539;DHT22;1280;49.760;9.664;2023-04-23T05:02:22;15.20;78.60
2539;DHT22;1280;49.760;9.664;2023-04-23T05:04:58;15.20;78.60
2539;DHT22;1280;49.760;9.664;2023-04-23T05:07:28;15.20;78.60
2539;DHT22;1280;49.760;9.664;2023-04-23T05:10:08;15.20;78.60
2539;DHT22;1280;49.760;9.664;2023-04-23T05:12:50;15.20;78.60
2539;DHT22;1280;49.760;9.664;2023-04-23T05:15:20;15.20;78.60
2539;DHT22;1280;49.760;9.664;2023-04-23T05:17:52;15.20;78.70
2539;DHT22;1280;49.760;9.664;2023-04-23T05:20:22;15.10;78.70
2539;DHT22;1280;49.760;9.664;2023-04-23T05:23:02;15.10;78.70
2539;DHT22;1280;49.760;9.664;2023-04-23T05:25:37;15.10;78.70
2539;DHT22;1280;49.760;9.664;2023-04-23T05:28:17;15.10;78.70
2539;DHT22;1280;49.760;9.664;2023-04-23T05:30:55;15.10;78.70
2539;DHT22;1280;49.760;9.664;2023-04-23T05:33:35;15.10;78.70
2539;DHT22;1280;49.760;9.664;2023-04-23T05:36:20;15.10;78.70
2539;DHT22;1280;49.760;9.664;2023-04-23T05:38:54;15.10;78.70
2539;DHT22;1280;49.760;9.664;2023-04-23T05:41:35;15.10;78.70
2539;DHT22;1280;49.760;9.664;2023-04-23T05:44:19;15.10;78.70
2539;DHT22;1280;49.760;9.664;2023-04-23T05:46:51;15.10;78.70
2539;DHT22;1280;49.760;9.664;2023-04-23T05:49:30;15.10;78.70
2539;DHT22;1280;49.760;9.664;2023-04-23T05:52:01;15.10;78.60
2539;DHT22;1280;49.760;9.664;2023-04-23T05:54:36;15.10;78.60
2539;DHT22;1280;49.760;9.664;2023-04-23T05:57:16;15.10;78.60
2539;DHT22;1280;49.760;9.664;2023-04-23T05:59:56;15.10;78.60
2539;DHT22;1280;49.760;9.664;2023-04-23T06:02:39;15.20;78.60
2539;DHT22;1280;49.760;9.664;2023-04-23T06:05:25;15.20;78.60
2539;DHT22;1280;49.760;9.664;2023-04-23T06:07:57;15.30;78.50
2539;DHT22;1280;49.760;9.664;2023-04-23T06:10:29;15.30;78.40
2539;DHT22;1280;49.760;9.664;2023-04-23T06:13:04;15.30;78.20
2539;DHT22;1280;49.760;9.664;2023-04-23T06:15:40;15.30;78.10
2539;DHT22;1280;49.760;9.664;2023-04-23T06:18:16;15.30;78.10
2539;DHT22;1280;49.760;9.664;2023-04-23T06:21:03;15.30;78.10
2539;DHT22;1280;49.760;9.664;2023-04-23T06:23:36;15.40;78.00
2539;DHT22;1280;49.760;9.664;2023-04-23T06:26:08;15.40;78.00
2539;DHT22;1280;49.760;9.664;2023-04-23T06:28:48;15.40;77.90
2539;DHT22;1280;49.760;9.664;2023-04-23T06:31:34;15.40;77.90
2539;DHT22;1280;49.760;9.664;2023-04-23T06:34:04;15.50;77.90
2539;DHT22;1280;49.760;9.664;2023-04-23T06:36:40;15.50;77.90
2539;DHT22;1280;49.760;9.664;2023-04-23T06:39:12;15.50;77.80
2539;DHT22;1280;49.760;9.664;2023-04-23T06:41:44;15.60;77.70
2539;DHT22;1280;49.760;9.664;2023-04-23T06:44:44;15.60;77.70
2539;DHT22;1280;49.760;9.664;2023-04-23T06:47:19;15.60;77.50
2539;DHT22;1280;49.760;9.664;2023-04-23T06:50:08;15.70;77.40
2539;DHT22;1280;49.760;9.664;2023-04-23T06:52:41;15.70;77.20
2539;DHT22;1280;49.760;9.664;2023-04-23T06:55:16;15.60;77.20
2539;DHT22;1280;49.760;9.664;2023-04-23T06:57:52;15.70;77.20
2539;DHT22;1280;49.760;9.664;2023-04-23T07:00:28;15.70;77.10
2539;DHT22;1280;49.760;9.664;2023-04-23T07:03:03;15.70;77.20
2539;DHT22;1280;49.760;9.664;2023-04-23T07:05:37;15.70;77.00
2539;DHT22;1280;49.760;9.664;2023-04-23T07:08:18;15.80;77.00
2539;DHT22;1280;49.760;9.664;2023-04-23T07:10:55;15.90;77.10
2539;DHT22;1280;49.760;9.664;2023-04-23T07:13:30;15.90;76.90
2539;DHT22;1280;49.760;9.664;2023-04-23T07:16:04;16.00;76.80
2539;DHT22;1280;49.760;9.664;2023-04-23T07:18:43;16.00;76.60
2539;DHT22;1280;49.760;9.664;2023-04-23T07:21:14;16.00;76.60
2539;DHT22;1280;49.760;9.664;2023-04-23T07:23:53;16.00;76.50
2539;DHT22;1280;49.760;9.664;2023-04-23T07:26:30;16.10;76.30
2539;DHT22;1280;49.760;9.664;2023-04-23T07:29:02;16.10;76.30
2539;DHT22;1280;49.760;9.664;2023-04-23T07:31:34;16.20;76.20
2539;DHT22;1280;49.760;9.664;2023-04-23T07:34:09;16.20;76.10
2539;DHT22;1280;49.760;9.664;2023-04-23T07:36:50;16.20;76.00
2539;DHT22;1280;49.760;9.664;2023-04-23T07:39:43;16.30;75.80
2539;DHT22;1280;49.760;9.664;2023-04-23T07:42:16;16.30;75.70
2539;DHT22;1280;49.760;9.664;2023-04-23T07:44:48;16.30;75.60
2539;DHT22;1280;49.760;9.664;2023-04-23T07:47:18;16.30;75.50
2539;DHT22;1280;49.760;9.664;2023-04-23T07:49:51;16.30;75.50
2539;DHT22;1280;49.760;9.664;2023-04-23T07:52:22;16.40;75.50
2539;DHT22;1280;49.760;9.664;2023-04-23T07:55:00;16.40;75.50
2539;DHT22;1280;49.760;9.664;2023-04-23T07:57:34;16.40;75.40
2539;DHT22;1280;49.760;9.664;2023-04-23T08:00:08;16.50;75.40
2539;DHT22;1280;49.760;9.664;2023-04-23T08:02:40;16.50;75.30
2539;DHT22;1280;49.760;9.664;2023-04-23T08:05:11;16.60;75.30
2539;DHT22;1280;49.760;9.664;2023-04-23T08:07:43;16.60;75.10
2539;DHT22;1280;49.760;9.664;2023-04-23T08:10:18;16.70;75.00
2539;DHT22;1280;49.760;9.664;2023-04-23T08:12:58;16.70;74.90
2539;DHT22;1280;49.760;9.664;2023-04-23T08:15:39;16.80;74.80
2539;DHT22;1280;49.760;9.664;2023-04-23T08:18:16;16.80;74.60
2539;DHT22;1280;49.760;9.664;2023-04-23T08:20:55;16.80;74.50
2539;DHT22;1280;49.760;9.664;2023-04-23T08:23:37;16.80;74.40
2539;DHT22;1280;49.760;9.664;2023-04-23T08:26:15;16.80;74.30
2539;DHT22;1280;49.760;9.664;2023-04-23T08:28:44;16.80;74.20
2539;DHT22;1280;49.760;9.664;2023-04-23T08:31:24;16.80;74.00
2539;DHT22;1280;49.760;9.664;2023-04-23T08:33:59;16.80;73.90
2539;DHT22;1280;49.760;9.664;2023-04-23T08:36:32;16.70;73.80
2539;DHT22;1280;49.760;9.664;2023-04-23T08:39:10;16.70;73.70
2539;DHT22;1280;49.760;9.664;2023-04-23T08:41:55;16.70;73.60
2539;DHT22;1280;49.760;9.664;2023-04-23T08:44:39;16.70;73.60
2539;DHT22;1280;49.760;9.664;2023-04-23T08:47:16;16.70;73.50
2539;DHT22;1280;49.760;9.664;2023-04-23T08:49:53;16.70;73.30
2539;DHT22;1280;49.760;9.664;2023-04-23T08:52:31;16.80;73.30
2539;DHT22;1280;49.760;9.664;2023-04-23T08:55:05;16.80;73.20
2539;DHT22;1280;49.760;9.664;2023-04-23T08:57:48;16.90;73.00
2539;DHT22;1280;49.760;9.664;2023-04-23T09:00:20;16.90;73.10
2539;DHT22;1280;49.760;9.664;2023-04-23T09:02:54;16.90;73.10
2539;DHT22;1280;49.760;9.664;2023-04-23T09:05:37;16.90;72.80
2539;DHT22;1280;49.760;9.664;2023-04-23T09:08:19;17.00;72.70
2539;DHT22;1280;49.760;9.664;2023-04-23T09:10:56;17.00;72.80
2539;DHT22;1280;49.760;9.664;2023-04-23T09:13:45;17.10;72.60
2539;DHT22;1280;49.760;9.664;2023-04-23T09:16:15;17.20;72.60
2539;DHT22;1280;49.760;9.664;2023-04-23T09:18:54;17.20;72.50
2539;DHT22;1280;49.760;9.664;2023-04-23T09:21:27;17.30;72.30
2539;DHT22;1280;49.760;9.664;2023-04-23T09:23:57;17.30;72.20
2539;DHT22;1280;49.760;9.664;2023-04-23T09:26:30;17.30;72.00
2539;DHT22;1280;49.760;9.664;2023-04-23T09:29:03;17.30;72.00
2539;DHT22;1280;49.760;9.664;2023-04-23T09:31:43;17.30;72.00
2539;DHT22;1280;49.760;9.664;2023-04-23T09:34:15;17.30;71.80
2539;DHT22;1280;49.760;9.664;2023-04-23T09:36:50;17.30;71.70
2539;DHT22;1280;49.760;9.664;2023-04-23T09:39:22;17.30;71.70
2539;DHT22;1280;49.760;9.664;2023-04-23T09:41:55;17.30;71.70
2539;DHT22;1280;49.760;9.664;2023-04-23T09:44:35;17.30;71.60
2539;DHT22;1280;49.760;9.664;2023-04-23T09:47:11;17.30;71.40
2539;DHT22;1280;49.760;9.664;2023-04-23T09:49:45;17.30;71.40
2539;DHT22;1280;49.760;9.664;2023-04-23T09:52:14;17.20;71.30
2539;DHT22;1280;49.760;9.664;2023-04-23T09:54:45;17.20;71.30
2539;DHT22;1280;49.760;9.664;2023-04-23T09:57:16;17.20;71.30
2539;DHT22;1280;49.760;9.664;2023-04-23T10:00:14;17.20;71.30
2539;DHT22;1280;49.760;9.664;2023-04-23T10:02:48;17.20;71.20
2539;DHT22;1280;49.760;9.664;2023-04-23T10:05:21;17.10;71.30
2539;DHT22;1280;49.760;9.664;2023-04-23T10:08:05;17.10;71.30
2539;DHT22;1280;49.760;9.664;2023-04-23T10:10:44;17.20;71.30
2539;DHT22;1280;49.760;9.664;2023-04-23T10:13:36;17.20;71.20
2539;DHT22;1280;49.760;9.664;2023-04-23T10:16:30;17.20;71.20
2539;DHT22;1280;49.760;9.664;2023-04-23T10:19:18;17.20;71.00
2539;DHT22;1280;49.760;9.664;2023-04-23T10:21:56;17.20;71.10
2539;DHT22;1280;49.760;9.664;2023-04-23T10:24:45;17.20;71.10
2539;DHT22;1280;49.760;9.664;2023-04-23T10:27:28;17.30;71.00
2539;DHT22;1280;49.760;9.664;2023-04-23T10:30:22;17.40;70.90
2539;DHT22;1280;49.760;9.664;2023-04-23T10:32:57;17.40;70.70
2539;DHT22;1280;49.760;9.664;2023-04-23T10:35:42;17.50;70.60
2539;DHT22;1280;49.760;9.664;2023-04-23T10:38:17;17.50;70.70
2539;DHT22;1280;49.760;9.664;2023-04-23T10:40:54;17.50;70.40
2539;DHT22;1280;49.760;9.664;2023-04-23T10:43:26;17.60;70.10
2539;DHT22;1280;49.760;9.664;2023-04-23T10:46:02;17.50;69.90
2539;DHT22;1280;49.760;9.664;2023-04-23T10:48:57;17.60;69.90
2539;DHT22;1280;49.760;9.664;2023-04-23T10:51:33;17.70;69.40
2539;DHT22;1280;49.760;9.664;2023-04-23T10:54:13;17.70;69.50
2539;DHT22;1280;49.760;9.664;2023-04-23T10:56:45;17.70;69.50
2539;DHT22;1280;49.760;9.664;2023-04-23T10:59:22;17.70;69.30
2539;DHT22;1280;49.760;9.664;2023-04-23T11:01:52;17.70;69.10
2539;DHT22;1280;49.760;9.664;2023-04-23T11:04:43;17.70;68.90
2539;DHT22;1280;49.760;9.664;2023-04-23T11:07:25;17.80;68.50
2539;DHT22;1280;49.760;9.664;2023-04-23T11:10:12;17.80;68.60
2539;DHT22;1280;49.760;9.664;2023-04-23T11:12:47;17.90;68.30
2539;DHT22;1280;49.760;9.664;2023-04-23T11:15:26;17.90;68.10
2539;DHT22;1280;49.760;9.664;2023-04-23T11:18:05;18.00;68.00
2539;DHT22;1280;49.760;9.664;2023-04-23T11:20:54;18.10;67.40
2539;DHT22;1280;49.760;9.664;2023-04-23T11:23:28;18.10;67.30
2539;DHT22;1280;49.760;9.664;2023-04-23T11:26:02;18.20;67.20
2539;DHT22;1280;49.760;9.664;2023-04-23T11:28:33;18.30;66.70
2539;DHT22;1280;49.760;9.664;2023-04-23T11:31:06;18.40;66.70
2539;DHT22;1280;49.760;9.664;2023-04-23T11:33:37;18.40;66.50
2539;DHT22;1280;49.760;9.664;2023-04-23T11:36:14;18.50;66.40
2539;DHT22;1280;49.760;9.664;2023-04-23T11:38:47;18.50;66.10
2539;DHT22;1280;49.760;9.664;2023-04-23T11:41:22;18.50;66.10
2539;DHT22;1280;49.760;9.664;2023-04-23T11:43:57;18.50;66.10
2539;DHT22;1280;49.760;9.664;2023-04-23T11:46:28;18.50;66.10
2539;DHT22;1280;49.760;9.664;2023-04-23T11:49:02;18.50;65.70
2539;DHT22;1280;49.760;9.664;2023-04-23T11:51:45;18.60;65.50
2539;DHT22;1280;49.760;9.664;2023-04-23T11:54:30;18.60;65.00
2539;DHT22;1280;49.760;9.664;2023-04-23T11:57:03;18.60;64.60
2539;DHT22;1280;49.760;9.664;2023-04-23T11:59:38;18.60;64.50
2539;DHT22;1280;49.760;9.664;2023-04-23T12:02:14;18.60;64.60
2539;DHT22;1280;49.760;9.664;2023-04-23T12:04:42;18.60;64.50
2539;DHT22;1280;49.760;9.664;2023-04-23T12:07:30;18.60;64.10
2539;DHT22;1280;49.760;9.664;2023-04-23T12:10:15;18.60;64.20
2539;DHT22;1280;49.760;9.664;2023-04-23T12:12:50;18.60;64.30
2539;DHT22;1280;49.760;9.664;2023-04-23T12:15:23;18.70;64.20
2539;DHT22;1280;49.760;9.664;2023-04-23T12:18:11;18.70;64.40
2539;DHT22;1280;49.760;9.664;2023-04-23T12:20:47;18.70;64.30
2539;DHT22;1280;49.760;9.664;2023-04-23T12:23:25;18.70;64.20
2539;DHT22;1280;49.760;9.664;2023-04-23T12:25:59;18.70;63.70
2539;DHT22;1280;49.760;9.664;2023-04-23T12:28:32;18.70;63.50
2539;DHT22;1280;49.760;9.664;2023-04-23T12:31:09;18.80;63.30
2539;DHT22;1280;49.760;9.664;2023-04-23T12:33:40;18.80;62.90
2539;DHT22;1280;49.760;9.664;2023-04-23T12:36:17;18.80;62.60
2539;DHT22;1280;49.760;9.664;2023-04-23T12:41:41;19.00;62.60
2539;DHT22;1280;49.760;9.664;2023-04-23T12:44:12;19.00;62.60
2539;DHT22;1280;49.760;9.664;2023-04-23T12:46:42;19.10;62.60
2539;DHT22;1280;49.760;9.664;2023-04-23T12:49:16;19.10;62.60
2539;DHT22;1280;49.760;9.664;2023-04-23T12:51:49;19.10;62.40
2539;DHT22;1280;49.760;9.664;2023-04-23T12:54:27;19.10;62.00
2539;DHT22;1280;49.760;9.664;2023-04-23T12:57:03;19.20;62.10
2539;DHT22;1280;49.760;9.664;2023-04-23T12:59:45;19.20;61.90
2539;DHT22;1280;49.760;9.664;2023-04-23T13:02:16;19.20;62.00
2539;DHT22;1280;49.760;9.664;2023-04-23T13:04:49;19.20;61.90
2539;DHT22;1280;49.760;9.664;2023-04-23T13:07:20;19.20;61.90
2539;DHT22;1280;49.760;9.664;2023-04-23T13:09:52;19.20;61.90
2539;DHT22;1280;49.760;9.664;2023-04-23T13:12:24;19.20;61.90
2539;DHT22;1280;49.760;9.664;2023-04-23T13:14:58;19.30;61.70
2539;DHT22;1280;49.760;9.664;2023-04-23T13:17:37;19.30;61.70
2539;DHT22;1280;49.760;9.664;2023-04-23T13:20:11;19.40;61.50
2539;DHT22;1280;49.760;9.664;2023-04-23T13:22:46;19.40;61.50
2539;DHT22;1280;49.760;9.664;2023-04-23T13:25:23;19.50;61.20
2539;DHT22;1280;49.760;9.664;2023-04-23T13:27:55;19.50;61.20
2539;DHT22;1280;49.760;9.664;2023-04-23T13:30:30;19.50;61.30
2539;DHT22;1280;49.760;9.664;2023-04-23T13:33:03;19.50;60.80
2539;DHT22;1280;49.760;9.664;2023-04-23T13:35:43;19.50;60.70
2539;DHT22;1280;49.760;9.664;2023-04-23T13:38:17;19.60;60.80
2539;DHT22;1280;49.760;9.664;2023-04-23T13:40:50;19.60;60.50
2539;DHT22;1280;49.760;9.664;2023-04-23T13:43:23;19.60;60.30
2539;DHT22;1280;49.760;9.664;2023-04-23T13:45:54;19.60;60.30
2539;DHT22;1280;49.760;9.664;2023-04-23T13:48:30;19.60;60.40
2539;DHT22;1280;49.760;9.664;2023-04-23T13:51:02;19.60;60.50
2539;DHT22;1280;49.760;9.664;2023-04-23T13:53:52;19.60;60.60
2539;DHT22;1280;49.760;9.664;2023-04-23T13:56:29;19.60;60.30
2539;DHT22;1280;49.760;9.664;2023-04-23T13:59:02;19.60;60.30
2539;DHT22;1280;49.760;9.664;2023-04-23T14:01:46;19.60;60.00
2539;DHT22;1280;49.760;9.664;2023-04-23T14:04:20;19.70;60.10
2539;DHT22;1280;49.760;9.664;2023-04-23T14:06:51;19.70;60.00
2539;DHT22;1280;49.760;9.664;2023-04-23T14:09:20;19.60;59.90
2539;DHT22;1280;49.760;9.664;2023-04-23T14:11:53;19.70;59.80
2539;DHT22;1280;49.760;9.664;2023-04-23T14:14:26;19.60;59.90
2539;DHT22;1280;49.760;9.664;2023-04-23T14:16:57;19.60;60.00
2539;DHT22;1280;49.760;9.664;2023-04-23T14:19:30;19.60;60.00
2539;DHT22;1280;49.760;9.664;2023-04-23T14:22:10;19.50;60.30
2539;DHT22;1280;49.760;9.664;2023-04-23T14:24:49;19.60;60.50
2539;DHT22;1280;49.760;9.664;2023-04-23T14:27:24;19.70;60.60
2539;DHT22;1280;49.760;9.664;2023-04-23T14:30:06;19.80;60.50
2539;DHT22;1280;49.760;9.664;2023-04-23T14:32:44;19.90;60.50
2539;DHT22;1280;49.760;9.664;2023-04-23T14:35:17;20.00;60.60
2539;DHT22;1280;49.760;9.664;2023-04-23T14:38:02;20.00;60.30
2539;DHT22;1280;49.760;9.664;2023-04-23T14:40:31;20.10;60.00
2539;DHT22;1280;49.760;9.664;2023-04-23T14:43:04;20.20;59.50
2539;DHT22;1280;49.760;9.664;2023-04-23T14:45:40;20.20;59.80
2539;DHT22;1280;49.760;9.664;2023-04-23T14:48:19;20.10;59.90
2539;DHT22;1280;49.760;9.664;2023-04-23T14:50:59;20.20;60.00
2539;DHT22;1280;49.760;9.664;2023-04-23T14:53:33;20.20;59.90
2539;DHT22;1280;49.760;9.664;2023-04-23T14:56:09;20.20;59.50
2539;DHT22;1280;49.760;9.664;2023-04-23T14:58:51;20.20;59.30
2539;DHT22;1280;49.760;9.664;2023-04-23T15:01:19;20.20;59.10
2539;DHT22;1280;49.760;9.664;2023-04-23T15:03:53;20.10;59.00
2539;DHT22;1280;49.760;9.664;2023-04-23T15:06:24;20.00;59.00
2539;DHT22;1280;49.760;9.664;2023-04-23T15:08:59;20.00;59.00
2539;DHT22;1280;49.760;9.664;2023-04-23T15:11:36;19.90;59.20
2539;DHT22;1280;49.760;9.664;2023-04-23T15:14:23;19.90;59.10
2539;DHT22;1280;49.760;9.664;2023-04-23T15:16:57;19.90;58.60
2539;DHT22;1280;49.760;9.664;2023-04-23T15:19:32;19.80;58.60
2539;DHT22;1280;49.760;9.664;2023-04-23T15:22:09;19.80;58.50
2539;DHT22;1280;49.760;9.664;2023-04-23T15:24:45;19.70;58.40
2539;DHT22;1280;49.760;9.664;2023-04-23T15:27:13;19.70;58.50
2539;DHT22;1280;49.760;9.664;2023-04-23T15:29:47;19.70;58.60
2539;DHT22;1280;49.760;9.664;2023-04-23T15:32:17;19.70;58.50
2539;DHT22;1280;49.760;9.664;2023-04-23T15:34:46;19.70;58.70
2539;DHT22;1280;49.760;9.664;2023-04-23T15:37:18;19.60;58.90
2539;DHT22;1280;49.760;9.664;2023-04-23T15:39:58;19.70;58.90
2539;DHT22;1280;49.760;9.664;2023-04-23T15:42:27;19.70;59.00
2539;DHT22;1280;49.760;9.664;2023-04-23T15:45:11;19.60;59.20
2539;DHT22;1280;49.760;9.664;2023-04-23T15:47:40;19.70;59.30
2539;DHT22;1280;49.760;9.664;2023-04-23T15:50:12;19.60;59.30
2539;DHT22;1280;49.760;9.664;2023-04-23T15:52:52;19.70;59.50
2539;DHT22;1280;49.760;9.664;2023-04-23T15:55:28;19.60;59.50
2539;DHT22;1280;49.760;9.664;2023-04-23T15:58:00;19.60;59.60
2539;DHT22;1280;49.760;9.664;2023-04-23T16:00:41;19.60;59.80
2539;DHT22;1280;49.760;9.664;2023-04-23T16:03:10;19.60;59.90
2539;DHT22;1280;49.760;9.664;2023-04-23T16:05:43;19.60;59.90
2539;DHT22;1280;49.760;9.664;2023-04-23T16:08:23;19.60;59.90
2539;DHT22;1280;49.760;9.664;2023-04-23T16:10:56;19.50;59.90
2539;DHT22;1280;49.760;9.664;2023-04-23T16:13:26;19.50;60.00
2539;DHT22;1280;49.760;9.664;2023-04-23T16:16:00;19.50;59.90
2539;DHT22;1280;49.760;9.664;2023-04-23T16:18:31;19.50;60.00
2539;DHT22;1280;49.760;9.664;2023-04-23T16:21:07;19.50;59.90
2539;DHT22;1280;49.760;9.664;2023-04-23T16:23:41;19.40;59.80
2539;DHT22;1280;49.760;9.664;2023-04-23T16:26:10;19.40;59.80
2539;DHT22;1280;49.760;9.664;2023-04-23T16:28:46;19.40;59.70
2539;DHT22;1280;49.760;9.664;2023-04-23T16:31:30;19.40;59.70
2539;DHT22;1280;49.760;9.664;2023-04-23T16:34:02;19.40;59.80
2539;DHT22;1280;49.760;9.664;2023-04-23T16:36:37;19.40;59.80
2539;DHT22;1280;49.760;9.664;2023-04-23T16:39:09;19.40;59.60
2539;DHT22;1280;49.760;9.664;2023-04-23T16:41:48;19.30;59.70
2539;DHT22;1280;49.760;9.664;2023-04-23T16:44:21;19.30;59.70
2539;DHT22;1280;49.760;9.664;2023-04-23T16:46:57;19.30;59.90
2539;DHT22;1280;49.760;9.664;2023-04-23T16:49:27;19.30;60.00
2539;DHT22;1280;49.760;9.664;2023-04-23T16:51:58;19.30;60.20
2539;DHT22;1280;49.760;9.664;2023-04-23T16:54:28;19.30;60.30
2539;DHT22;1280;49.760;9.664;2023-04-23T16:57:02;19.30;60.40
2539;DHT22;1280;49.760;9.664;2023-04-23T16:59:33;19.30;60.50
2539;DHT22;1280;49.760;9.664;2023-04-23T17:02:18;19.30;60.60
2539;DHT22;1280;49.760;9.664;2023-04-23T17:04:52;19.30;60.50